sensor_id;sensor_type;location;lat;lon;timestamp;P1;durP1;ratioP1;P2;durP2;ratioP2
56399;SDS011;42298;53.638;9.876;2022-12-11T00:00:33;16.13;;;9.43;;
56399;SDS011;42298;53.638;9.876;2022-12-11T00:02:59;16.60;;;9.83;;
56399;SDS011;42298;53.638;9.876;2022-12-11T00:05:24;15.97;;;9.67;;
56399;SDS011;42298;53.638;9.876;2022-12-11T00:07:49;19.80;;;10.70;;
56399;SDS011;42298;53.638;9.876;2022-12-11T00:10:14;18.57;;;10.23;;
56399;SDS011;42298;53.638;9.876;2022-12-11T00:12:40;17.67;;;10.00;;
56399;SDS011;42298;53.638;9.876;2022-12-11T00:15:05;16.57;;;9.80;;
56399;SDS011;42298;53.638;9.876;2022-12-11T00:17:31;16.07;;;10.00;;
56399;SDS011;42298;53.638;9.876;2022-12-11T00:19:56;17.30;;;9.33;;
56399;SDS011;42298;53.638;9.876;2022-12-11T00:22:21;18.30;;;10.17;;
56399;SDS011;42298;53.638;9.876;2022-12-11T00:24:47;17.10;;;9.80;;
56399;SDS011;42298;53.638;9.876;2022-12-11T00:27:12;17.97;;;9.97;;
56399;SDS011;42298;53.638;9.876;2022-12-11T00:29:37;17.90;;;9.63;;
56399;SDS011;42298;53.638;9.876;2022-12-11T00:32:03;16.23;;;9.53;;
56399;SDS011;42298;53.638;9.876;2022-12-11T00:34:28;17.27;;;9.97;;
56399;SDS011;42298;53.638;9.876;2022-12-11T00:36:54;16.50;;;9.63;;
56399;SDS011;42298;53.638;9.876;2022-12-11T00:39:19;17.27;;;8.90;;
56399;SDS011;42298;53.638;9.876;2022-12-11T00:41:44;16.30;;;9.43;;
56399;SDS011;42298;53.638;9.876;2022-12-11T00:44:10;15.00;;;8.70;;
56399;SDS011;42298;53.638;9.876;2022-12-11T00:46:35;16.67;;;9.83;;
56399;SDS011;42298;53.638;9.876;2022-12-11T00:49:00;15.40;;;8.83;;
56399;SDS011;42298;53.638;9.876;2022-12-11T00:51:25;15.97;;;9.20;;
56399;SDS011;42298;53.638;9.876;2022-12-11T00:53:51;16.07;;;9.60;;
56399;SDS011;42298;53.638;9.876;2022-12-11T00:56:18;16.53;;;9.20;;
56399;SDS011;42298;53.638;9.876;2022-12-11T00:58:46;17.50;;;9.70;;
56399;SDS011;42298;53.638;9.876;2022-12-11T01:01:14;17.57;;;9.60;;
56399;SDS011;42298;53.638;9.876;2022-12-11T01:03:41;16.93;;;9.40;;
56399;SDS011;42298;53.638;9.876;2022-12-11T01:06:06;16.03;;;9.60;;
56399;SDS011;42298;53.638;9.876;2022-12-11T01:08:32;16.03;;;9.40;;
56399;SDS011;42298;53.638;9.876;2022-12-11T01:11:02;16.83;;;9.57;;
56399;SDS011;42298;53.638;9.876;2022-12-11T01:13:30;16.47;;;9.67;;
56399;SDS011;42298;53.638;9.876;2022-12-11T01:15:56;16.70;;;9.60;;
56399;SDS011;42298;53.638;9.876;2022-12-11T01:18:21;18.17;;;11.37;;
56399;SDS011;42298;53.638;9.876;2022-12-11T01:20:47;17.17;;;9.70;;
56399;SDS011;42298;53.638;9.876;2022-12-11T01:23:12;16.00;;;9.47;;
56399;SDS011;42298;53.638;9.876;2022-12-11T01:25:39;16.57;;;9.80;;
56399;SDS011;42298;53.638;9.876;2022-12-11T01:28:05;18.40;;;10.10;;
56399;SDS011;42298;53.638;9.876;2022-12-11T01:30:30;19.07;;;10.33;;
56399;SDS011;42298;53.638;9.876;2022-12-11T01:32:56;18.30;;;10.53;;
56399;SDS011;42298;53.638;9.876;2022-12-11T01:35:22;18.23;;;9.70;;
56399;SDS011;42298;53.638;9.876;2022-12-11T01:37:47;16.93;;;9.57;;
56399;SDS011;42298;53.638;9.876;2022-12-11T01:40:14;13.80;;;8.27;;
56399;SDS011;42298;53.638;9.876;2022-12-11T01:42:41;15.67;;;9.43;;
56399;SDS011;42298;53.638;9.876;2022-12-11T01:45:19;17.30;;;9.90;;
56399;SDS011;42298;53.638;9.876;2022-12-11T01:50:33;17.57;;;10.07;;
56399;SDS011;42298;53.638;9.876;2022-12-11T01:53:03;16.10;;;9.40;;
56399;SDS011;42298;53.638;9.876;2022-12-11T01:55:32;15.30;;;9.30;;
56399;SDS011;42298;53.638;9.876;2022-12-11T01:57:58;17.93;;;10.13;;
56399;SDS011;42298;53.638;9.876;2022-12-11T02:00:26;17.10;;;10.10;;
56399;SDS011;42298;53.638;9.876;2022-12-11T02:02:51;15.67;;;9.53;;
56399;SDS011;42298;53.638;9.876;2022-12-11T02:05:16;15.27;;;8.40;;
56399;SDS011;42298;53.638;9.876;2022-12-11T02:08:03;15.43;;;9.10;;
56399;SDS011;42298;53.638;9.876;2022-12-11T02:10:32;15.57;;;9.47;;
56399;SDS011;42298;53.638;9.876;2022-12-11T02:13:17;16.27;;;9.73;;
56399;SDS011;42298;53.638;9.876;2022-12-11T02:18:30;15.23;;;9.47;;
56399;SDS011;42298;53.638;9.876;2022-12-11T02:21:06;18.27;;;9.50;;
56399;SDS011;42298;53.638;9.876;2022-12-11T02:23:48;17.17;;;10.30;;
56399;SDS011;42298;53.638;9.876;2022-12-11T02:29:17;16.67;;;9.60;;
56399;SDS011;42298;53.638;9.876;2022-12-11T02:31:49;17.83;;;10.13;;
56399;SDS011;42298;53.638;9.876;2022-12-11T02:34:24;16.33;;;9.90;;
56399;SDS011;42298;53.638;9.876;2022-12-11T02:36:56;17.77;;;10.27;;
56399;SDS011;42298;53.638;9.876;2022-12-11T02:39:24;16.80;;;9.57;;
56399;SDS011;42298;53.638;9.876;2022-12-11T02:41:51;15.80;;;8.93;;
56399;SDS011;42298;53.638;9.876;2022-12-11T02:44:18;16.43;;;9.53;;
56399;SDS011;42298;53.638;9.876;2022-12-11T02:46:48;16.20;;;9.33;;
56399;SDS011;42298;53.638;9.876;2022-12-11T02:49:16;17.13;;;9.43;;
56399;SDS011;42298;53.638;9.876;2022-12-11T02:51:43;17.57;;;10.47;;
56399;SDS011;42298;53.638;9.876;2022-12-11T02:54:21;15.40;;;9.10;;
56399;SDS011;42298;53.638;9.876;2022-12-11T02:56:53;18.17;;;9.63;;
56399;SDS011;42298;53.638;9.876;2022-12-11T02:59:37;17.13;;;9.70;;
56399;SDS011;42298;53.638;9.876;2022-12-11T03:02:05;17.40;;;9.37;;
56399;SDS011;42298;53.638;9.876;2022-12-11T03:04:30;15.47;;;9.47;;
56399;SDS011;42298;53.638;9.876;2022-12-11T03:07:00;17.93;;;10.73;;
56399;SDS011;42298;53.638;9.876;2022-12-11T03:09:36;16.13;;;10.10;;
56399;SDS011;42298;53.638;9.876;2022-12-11T03:12:06;16.53;;;9.40;;
56399;SDS011;42298;53.638;9.876;2022-12-11T03:14:35;18.17;;;9.70;;
56399;SDS011;42298;53.638;9.876;2022-12-11T03:17:04;17.00;;;10.27;;
56399;SDS011;42298;53.638;9.876;2022-12-11T03:19:37;19.17;;;10.43;;
56399;SDS011;42298;53.638;9.876;2022-12-11T03:24:43;18.87;;;10.43;;
56399;SDS011;42298;53.638;9.876;2022-12-11T03:27:26;17.07;;;9.57;;
56399;SDS011;42298;53.638;9.876;2022-12-11T03:29:54;16.40;;;9.67;;
56399;SDS011;42298;53.638;9.876;2022-12-11T03:32:24;16.03;;;9.77;;
56399;SDS011;42298;53.638;9.876;2022-12-11T03:34:56;16.23;;;10.13;;
56399;SDS011;42298;53.638;9.876;2022-12-11T03:37:28;18.10;;;10.33;;
56399;SDS011;42298;53.638;9.876;2022-12-11T03:39:59;15.70;;;8.80;;
56399;SDS011;42298;53.638;9.876;2022-12-11T03:42:30;20.00;;;9.77;;
56399;SDS011;42298;53.638;9.876;2022-12-11T03:44:56;18.10;;;10.37;;
56399;SDS011;42298;53.638;9.876;2022-12-11T03:47:24;16.33;;;10.00;;
56399;SDS011;42298;53.638;9.876;2022-12-11T03:49:51;18.20;;;9.33;;
56399;SDS011;42298;53.638;9.876;2022-12-11T03:52:19;17.27;;;10.17;;
56399;SDS011;42298;53.638;9.876;2022-12-11T03:54:47;17.90;;;10.17;;
56399;SDS011;42298;53.638;9.876;2022-12-11T03:57:16;17.57;;;10.03;;
56399;SDS011;42298;53.638;9.876;2022-12-11T03:59:46;18.77;;;10.27;;
56399;SDS011;42298;53.638;9.876;2022-12-11T04:02:13;16.50;;;9.53;;
56399;SDS011;42298;53.638;9.876;2022-12-11T04:04:39;18.43;;;10.73;;
56399;SDS011;42298;53.638;9.876;2022-12-11T04:07:05;17.90;;;10.37;;
56399;SDS011;42298;53.638;9.876;2022-12-11T04:09:31;21.33;;;12.47;;
56399;SDS011;42298;53.638;9.876;2022-12-11T04:11:57;19.03;;;10.87;;
56399;SDS011;42298;53.638;9.876;2022-12-11T04:14:22;20.63;;;11.60;;
56399;SDS011;42298;53.638;9.876;2022-12-11T04:17:06;20.13;;;12.07;;
56399;SDS011;42298;53.638;9.876;2022-12-11T04:19:31;20.40;;;13.13;;
56399;SDS011;42298;53.638;9.876;2022-12-11T04:22:15;21.50;;;12.43;;
56399;SDS011;42298;53.638;9.876;2022-12-11T04:25:01;21.07;;;13.13;;
56399;SDS011;42298;53.638;9.876;2022-12-11T04:27:28;22.63;;;12.73;;
56399;SDS011;42298;53.638;9.876;2022-12-11T04:30:14;22.97;;;13.03;;
56399;SDS011;42298;53.638;9.876;2022-12-11T04:32:45;23.60;;;12.47;;
56399;SDS011;42298;53.638;9.876;2022-12-11T04:35:10;22.67;;;13.00;;
56399;SDS011;42298;53.638;9.876;2022-12-11T04:37:36;22.93;;;12.70;;
56399;SDS011;42298;53.638;9.876;2022-12-11T04:40:03;21.40;;;13.00;;
56399;SDS011;42298;53.638;9.876;2022-12-11T04:42:30;22.03;;;12.40;;
56399;SDS011;42298;53.638;9.876;2022-12-11T04:44:55;20.20;;;12.23;;
56399;SDS011;42298;53.638;9.876;2022-12-11T04:47:20;22.33;;;12.13;;
56399;SDS011;42298;53.638;9.876;2022-12-11T04:49:46;22.00;;;13.27;;
56399;SDS011;42298;53.638;9.876;2022-12-11T04:52:11;20.67;;;12.77;;
56399;SDS011;42298;53.638;9.876;2022-12-11T04:54:36;21.00;;;12.00;;
56399;SDS011;42298;53.638;9.876;2022-12-11T04:57:02;21.00;;;11.83;;
56399;SDS011;42298;53.638;9.876;2022-12-11T04:59:27;22.03;;;12.87;;
56399;SDS011;42298;53.638;9.876;2022-12-11T05:01:52;20.30;;;12.33;;
56399;SDS011;42298;53.638;9.876;2022-12-11T05:04:18;20.73;;;12.23;;
56399;SDS011;42298;53.638;9.876;2022-12-11T05:06:43;18.60;;;11.07;;
56399;SDS011;42298;53.638;9.876;2022-12-11T05:09:11;20.33;;;11.57;;
56399;SDS011;42298;53.638;9.876;2022-12-11T05:11:37;18.27;;;11.80;;
56399;SDS011;42298;53.638;9.876;2022-12-11T05:14:03;20.60;;;11.97;;
56399;SDS011;42298;53.638;9.876;2022-12-11T05:16:29;18.73;;;11.93;;
56399;SDS011;42298;53.638;9.876;2022-12-11T05:18:54;19.53;;;12.07;;
56399;SDS011;42298;53.638;9.876;2022-12-11T05:21:20;20.80;;;12.40;;
56399;SDS011;42298;53.638;9.876;2022-12-11T05:23:45;20.73;;;12.30;;
56399;SDS011;42298;53.638;9.876;2022-12-11T05:26:12;22.87;;;11.87;;
56399;SDS011;42298;53.638;9.876;2022-12-11T05:28:40;21.60;;;12.53;;
56399;SDS011;42298;53.638;9.876;2022-12-11T05:31:07;20.13;;;11.90;;
56399;SDS011;42298;53.638;9.876;2022-12-11T05:33:36;21.73;;;11.87;;
56399;SDS011;42298;53.638;9.876;2022-12-11T05:36:02;20.80;;;11.87;;
56399;SDS011;42298;53.638;9.876;2022-12-11T05:38:43;21.47;;;12.87;;
56399;SDS011;42298;53.638;9.876;2022-12-11T05:41:09;18.80;;;11.63;;
56399;SDS011;42298;53.638;9.876;2022-12-11T05:43:38;21.97;;;12.70;;
56399;SDS011;42298;53.638;9.876;2022-12-11T05:46:04;20.03;;;13.13;;
56399;SDS011;42298;53.638;9.876;2022-12-11T05:48:31;22.03;;;11.90;;
56399;SDS011;42298;53.638;9.876;2022-12-11T05:50:57;22.17;;;13.13;;
56399;SDS011;42298;53.638;9.876;2022-12-11T05:53:24;21.13;;;11.80;;
56399;SDS011;42298;53.638;9.876;2022-12-11T05:55:50;20.03;;;11.57;;
56399;SDS011;42298;53.638;9.876;2022-12-11T05:58:15;20.67;;;12.43;;
56399;SDS011;42298;53.638;9.876;2022-12-11T06:00:41;19.10;;;11.10;;
56399;SDS011;42298;53.638;9.876;2022-12-11T06:03:07;20.60;;;12.50;;
56399;SDS011;42298;53.638;9.876;2022-12-11T06:05:36;21.27;;;13.30;;
56399;SDS011;42298;53.638;9.876;2022-12-11T06:08:05;19.77;;;11.70;;
56399;SDS011;42298;53.638;9.876;2022-12-11T06:10:31;21.20;;;12.37;;
56399;SDS011;42298;53.638;9.876;2022-12-11T06:12:57;22.67;;;12.33;;
56399;SDS011;42298;53.638;9.876;2022-12-11T06:15:22;20.60;;;12.53;;
56399;SDS011;42298;53.638;9.876;2022-12-11T06:17:47;22.00;;;13.07;;
56399;SDS011;42298;53.638;9.876;2022-12-11T06:20:13;27.80;;;13.30;;
56399;SDS011;42298;53.638;9.876;2022-12-11T06:22:38;22.73;;;12.87;;
56399;SDS011;42298;53.638;9.876;2022-12-11T06:25:04;21.00;;;12.47;;
56399;SDS011;42298;53.638;9.876;2022-12-11T06:27:30;21.20;;;13.13;;
56399;SDS011;42298;53.638;9.876;2022-12-11T06:29:55;20.33;;;12.50;;
56399;SDS011;42298;53.638;9.876;2022-12-11T06:32:21;21.83;;;13.17;;
56399;SDS011;42298;53.638;9.876;2022-12-11T06:34:46;20.57;;;12.67;;
56399;SDS011;42298;53.638;9.876;2022-12-11T06:37:12;22.33;;;13.57;;
56399;SDS011;42298;53.638;9.876;2022-12-11T06:39:37;21.30;;;13.47;;
56399;SDS011;42298;53.638;9.876;2022-12-11T06:42:02;20.60;;;12.97;;
56399;SDS011;42298;53.638;9.876;2022-12-11T06:44:28;21.40;;;13.43;;
56399;SDS011;42298;53.638;9.876;2022-12-11T06:46:53;20.13;;;12.80;;
56399;SDS011;42298;53.638;9.876;2022-12-11T06:49:18;21.73;;;13.03;;
56399;SDS011;42298;53.638;9.876;2022-12-11T06:51:44;22.13;;;13.67;;
56399;SDS011;42298;53.638;9.876;2022-12-11T06:54:09;22.50;;;14.00;;
56399;SDS011;42298;53.638;9.876;2022-12-11T06:56:34;22.93;;;13.83;;
56399;SDS011;42298;53.638;9.876;2022-12-11T06:59:00;24.73;;;14.43;;
56399;SDS011;42298;53.638;9.876;2022-12-11T07:01:26;23.93;;;14.07;;
56399;SDS011;42298;53.638;9.876;2022-12-11T07:03:52;23.47;;;14.30;;
56399;SDS011;42298;53.638;9.876;2022-12-11T07:06:18;25.50;;;14.83;;
56399;SDS011;42298;53.638;9.876;2022-12-11T07:08:44;25.40;;;15.23;;
56399;SDS011;42298;53.638;9.876;2022-12-11T07:11:11;22.57;;;13.97;;
56399;SDS011;42298;53.638;9.876;2022-12-11T07:13:38;23.20;;;13.77;;
56399;SDS011;42298;53.638;9.876;2022-12-11T07:16:05;21.57;;;13.17;;
56399;SDS011;42298;53.638;9.876;2022-12-11T07:18:34;23.00;;;13.97;;
56399;SDS011;42298;53.638;9.876;2022-12-11T07:21:01;21.00;;;13.20;;
56399;SDS011;42298;53.638;9.876;2022-12-11T07:23:26;22.27;;;13.40;;
56399;SDS011;42298;53.638;9.876;2022-12-11T07:25:52;23.03;;;13.83;;
56399;SDS011;42298;53.638;9.876;2022-12-11T07:28:19;24.53;;;15.27;;
56399;SDS011;42298;53.638;9.876;2022-12-11T07:30:44;25.87;;;16.67;;
56399;SDS011;42298;53.638;9.876;2022-12-11T07:33:09;24.33;;;14.73;;
56399;SDS011;42298;53.638;9.876;2022-12-11T07:35:35;23.37;;;14.43;;
56399;SDS011;42298;53.638;9.876;2022-12-11T07:38:00;25.70;;;14.97;;
56399;SDS011;42298;53.638;9.876;2022-12-11T07:40:26;24.13;;;14.97;;
56399;SDS011;42298;53.638;9.876;2022-12-11T07:42:51;22.50;;;13.37;;
56399;SDS011;42298;53.638;9.876;2022-12-11T07:45:17;24.67;;;14.40;;
56399;SDS011;42298;53.638;9.876;2022-12-11T07:47:42;21.83;;;13.33;;
56399;SDS011;42298;53.638;9.876;2022-12-11T07:50:08;24.10;;;13.77;;
56399;SDS011;42298;53.638;9.876;2022-12-11T07:52:33;22.07;;;13.93;;
56399;SDS011;42298;53.638;9.876;2022-12-11T07:54:59;23.30;;;13.87;;
56399;SDS011;42298;53.638;9.876;2022-12-11T07:57:24;22.63;;;14.93;;
56399;SDS011;42298;53.638;9.876;2022-12-11T07:59:49;24.17;;;15.10;;
56399;SDS011;42298;53.638;9.876;2022-12-11T08:02:15;24.23;;;13.63;;
56399;SDS011;42298;53.638;9.876;2022-12-11T08:04:40;26.47;;;15.13;;
56399;SDS011;42298;53.638;9.876;2022-12-11T08:07:05;27.33;;;15.30;;
56399;SDS011;42298;53.638;9.876;2022-12-11T08:09:31;25.27;;;15.50;;
56399;SDS011;42298;53.638;9.876;2022-12-11T08:11:56;27.03;;;15.00;;
56399;SDS011;42298;53.638;9.876;2022-12-11T08:14:21;26.87;;;16.30;;
56399;SDS011;42298;53.638;9.876;2022-12-11T08:16:47;24.53;;;15.60;;
56399;SDS011;42298;53.638;9.876;2022-12-11T08:19:12;27.13;;;17.13;;
56399;SDS011;42298;53.638;9.876;2022-12-11T08:21:38;31.70;;;16.93;;
56399;SDS011;42298;53.638;9.876;2022-12-11T08:24:04;26.83;;;16.13;;
56399;SDS011;42298;53.638;9.876;2022-12-11T08:26:29;26.70;;;17.10;;
56399;SDS011;42298;53.638;9.876;2022-12-11T08:28:56;25.37;;;15.83;;
56399;SDS011;42298;53.638;9.876;2022-12-11T08:31:22;28.60;;;17.10;;
56399;SDS011;42298;53.638;9.876;2022-12-11T08:33:48;26.33;;;15.83;;
56399;SDS011;42298;53.638;9.876;2022-12-11T08:36:14;30.27;;;17.23;;
56399;SDS011;42298;53.638;9.876;2022-12-11T08:38:41;27.37;;;16.50;;
56399;SDS011;42298;53.638;9.876;2022-12-11T08:41:10;26.60;;;17.17;;
56399;SDS011;42298;53.638;9.876;2022-12-11T08:43:38;30.27;;;16.97;;
56399;SDS011;42298;53.638;9.876;2022-12-11T08:46:03;27.37;;;16.07;;
56399;SDS011;42298;53.638;9.876;2022-12-11T08:48:29;29.27;;;16.70;;
56399;SDS011;42298;53.638;9.876;2022-12-11T08:50:57;29.10;;;17.67;;
56399;SDS011;42298;53.638;9.876;2022-12-11T08:53:25;32.57;;;18.70;;
56399;SDS011;42298;53.638;9.876;2022-12-11T08:55:50;28.80;;;16.73;;
56399;SDS011;42298;53.638;9.876;2022-12-11T08:58:16;27.30;;;16.77;;
56399;SDS011;42298;53.638;9.876;2022-12-11T09:00:41;28.53;;;16.73;;
56399;SDS011;42298;53.638;9.876;2022-12-11T09:03:07;26.53;;;16.13;;
56399;SDS011;42298;53.638;9.876;2022-12-11T09:05:33;26.33;;;16.20;;
56399;SDS011;42298;53.638;9.876;2022-12-11T09:07:58;24.53;;;14.77;;
56399;SDS011;42298;53.638;9.876;2022-12-11T09:10:23;25.53;;;15.13;;
56399;SDS011;42298;53.638;9.876;2022-12-11T09:12:49;27.10;;;16.23;;
56399;SDS011;42298;53.638;9.876;2022-12-11T09:15:14;28.70;;;17.17;;
56399;SDS011;42298;53.638;9.876;2022-12-11T09:17:40;26.50;;;16.47;;
56399;SDS011;42298;53.638;9.876;2022-12-11T09:20:05;26.33;;;16.13;;
56399;SDS011;42298;53.638;9.876;2022-12-11T09:22:31;26.47;;;15.60;;
56399;SDS011;42298;53.638;9.876;2022-12-11T09:24:57;25.90;;;15.80;;
56399;SDS011;42298;53.638;9.876;2022-12-11T09:27:23;24.63;;;15.47;;
56399;SDS011;42298;53.638;9.876;2022-12-11T09:29:49;25.83;;;14.37;;
56399;SDS011;42298;53.638;9.876;2022-12-11T09:32:15;25.03;;;15.17;;
56399;SDS011;42298;53.638;9.876;2022-12-11T09:34:40;23.63;;;15.63;;
56399;SDS011;42298;53.638;9.876;2022-12-11T09:37:05;25.37;;;14.43;;
56399;SDS011;42298;53.638;9.876;2022-12-11T09:39:31;25.70;;;15.40;;
56399;SDS011;42298;53.638;9.876;2022-12-11T09:45:02;23.03;;;13.63;;
56399;SDS011;42298;53.638;9.876;2022-12-11T09:47:35;23.30;;;13.83;;
56399;SDS011;42298;53.638;9.876;2022-12-11T09:50:09;22.40;;;13.77;;
56399;SDS011;42298;53.638;9.876;2022-12-11T09:55:39;23.07;;;13.63;;
56399;SDS011;42298;53.638;9.876;2022-12-11T10:01:27;22.57;;;12.60;;
56399;SDS011;42298;53.638;9.876;2022-12-11T10:04:18;20.13;;;12.70;;
56399;SDS011;42298;53.638;9.876;2022-12-11T10:12:20;20.83;;;13.23;;
56399;SDS011;42298;53.638;9.876;2022-12-11T10:14:58;21.97;;;13.30;;
56399;SDS011;42298;53.638;9.876;2022-12-11T10:17:45;21.13;;;12.67;;
56399;SDS011;42298;53.638;9.876;2022-12-11T10:20:16;20.33;;;12.40;;
56399;SDS011;42298;53.638;9.876;2022-12-11T10:22:42;22.03;;;13.40;;
56399;SDS011;42298;53.638;9.876;2022-12-11T10:25:13;22.27;;;13.63;;
56399;SDS011;42298;53.638;9.876;2022-12-11T10:27:43;22.73;;;13.50;;
56399;SDS011;42298;53.638;9.876;2022-12-11T10:30:13;23.40;;;14.80;;
56399;SDS011;42298;53.638;9.876;2022-12-11T10:32:48;22.83;;;13.77;;
56399;SDS011;42298;53.638;9.876;2022-12-11T10:35:37;21.73;;;13.00;;
56399;SDS011;42298;53.638;9.876;2022-12-11T10:38:11;21.03;;;12.77;;
56399;SDS011;42298;53.638;9.876;2022-12-11T10:40:41;21.53;;;12.63;;
56399;SDS011;42298;53.638;9.876;2022-12-11T10:43:09;21.60;;;13.50;;
56399;SDS011;42298;53.638;9.876;2022-12-11T10:45:34;23.30;;;14.07;;
56399;SDS011;42298;53.638;9.876;2022-12-11T10:48:01;24.00;;;14.10;;
56399;SDS011;42298;53.638;9.876;2022-12-11T10:50:27;24.40;;;13.63;;
56399;SDS011;42298;53.638;9.876;2022-12-11T10:52:52;24.57;;;14.00;;
56399;SDS011;42298;53.638;9.876;2022-12-11T10:58:01;22.80;;;13.87;;
56399;SDS011;42298;53.638;9.876;2022-12-11T11:00:33;21.60;;;12.87;;
56399;SDS011;42298;53.638;9.876;2022-12-11T11:03:01;21.17;;;12.83;;
56399;SDS011;42298;53.638;9.876;2022-12-11T11:05:30;22.00;;;13.40;;
56399;SDS011;42298;53.638;9.876;2022-12-11T11:08:15;24.63;;;14.63;;
56399;SDS011;42298;53.638;9.876;2022-12-11T11:10:53;21.00;;;12.80;;
56399;SDS011;42298;53.638;9.876;2022-12-11T11:13:21;21.87;;;13.50;;
56399;SDS011;42298;53.638;9.876;2022-12-11T11:15:48;21.07;;;12.57;;
56399;SDS011;42298;53.638;9.876;2022-12-11T11:18:23;21.00;;;12.73;;
56399;SDS011;42298;53.638;9.876;2022-12-11T11:20:51;20.57;;;12.57;;
56399;SDS011;42298;53.638;9.876;2022-12-11T11:23:16;21.67;;;12.53;;
56399;SDS011;42298;53.638;9.876;2022-12-11T11:25:52;20.53;;;12.17;;
56399;SDS011;42298;53.638;9.876;2022-12-11T11:28:35;20.67;;;11.53;;
56399;SDS011;42298;53.638;9.876;2022-12-11T11:33:30;20.50;;;11.20;;
56399;SDS011;42298;53.638;9.876;2022-12-11T11:35:58;21.77;;;12.37;;
56399;SDS011;42298;53.638;9.876;2022-12-11T11:38:34;21.80;;;12.07;;
56399;SDS011;42298;53.638;9.876;2022-12-11T11:43:53;20.50;;;12.33;;
56399;SDS011;42298;53.638;9.876;2022-12-11T11:46:42;21.37;;;13.00;;
56399;SDS011;42298;53.638;9.876;2022-12-11T12:00:22;21.03;;;12.20;;
56399;SDS011;42298;53.638;9.876;2022-12-11T12:02:52;21.03;;;12.03;;
56399;SDS011;42298;53.638;9.876;2022-12-11T12:05:23;20.90;;;12.40;;
56399;SDS011;42298;53.638;9.876;2022-12-11T12:08:02;21.10;;;13.23;;
56399;SDS011;42298;53.638;9.876;2022-12-11T12:10:49;20.63;;;12.17;;
56399;SDS011;42298;53.638;9.876;2022-12-11T12:13:22;19.70;;;12.33;;
56399;SDS011;42298;53.638;9.876;2022-12-11T12:15:55;18.93;;;10.53;;
56399;SDS011;42298;53.638;9.876;2022-12-11T12:21:27;19.73;;;11.03;;
56399;SDS011;42298;53.638;9.876;2022-12-11T12:26:36;22.07;;;11.93;;
56399;SDS011;42298;53.638;9.876;2022-12-11T12:37:31;20.47;;;11.30;;
56399;SDS011;42298;53.638;9.876;2022-12-11T12:48:26;18.57;;;10.30;;
56399;SDS011;42298;53.638;9.876;2022-12-11T12:50:52;19.03;;;10.93;;
56399;SDS011;42298;53.638;9.876;2022-12-11T12:53:27;19.53;;;11.13;;
56399;SDS011;42298;53.638;9.876;2022-12-11T12:55:57;21.20;;;12.30;;
56399;SDS011;42298;53.638;9.876;2022-12-11T12:58:40;21.40;;;13.10;;
56399;SDS011;42298;53.638;9.876;2022-12-11T13:01:07;19.30;;;11.47;;
56399;SDS011;42298;53.638;9.876;2022-12-11T13:03:57;20.23;;;11.83;;
56399;SDS011;42298;53.638;9.876;2022-12-11T13:06:33;18.53;;;9.57;;
56399;SDS011;42298;53.638;9.876;2022-12-11T13:09:11;21.27;;;11.60;;
56399;SDS011;42298;53.638;9.876;2022-12-11T13:11:37;20.00;;;10.70;;
56399;SDS011;42298;53.638;9.876;2022-12-11T13:14:26;18.43;;;11.00;;
56399;SDS011;42298;53.638;9.876;2022-12-11T13:17:04;20.97;;;11.70;;
56399;SDS011;42298;53.638;9.876;2022-12-11T13:19:32;19.83;;;11.50;;
56399;SDS011;42298;53.638;9.876;2022-12-11T13:27:25;22.23;;;12.27;;
56399;SDS011;42298;53.638;9.876;2022-12-11T13:32:38;21.43;;;12.73;;
56399;SDS011;42298;53.638;9.876;2022-12-11T13:35:06;21.43;;;12.27;;
56399;SDS011;42298;53.638;9.876;2022-12-11T13:37:39;20.23;;;11.17;;
56399;SDS011;42298;53.638;9.876;2022-12-11T13:40:15;19.63;;;11.40;;
56399;SDS011;42298;53.638;9.876;2022-12-11T13:42:48;21.17;;;12.13;;
56399;SDS011;42298;53.638;9.876;2022-12-11T13:45:22;17.93;;;11.07;;
56399;SDS011;42298;53.638;9.876;2022-12-11T13:48:03;22.13;;;13.57;;
56399;SDS011;42298;53.638;9.876;2022-12-11T13:50:45;20.93;;;11.87;;
56399;SDS011;42298;53.638;9.876;2022-12-11T13:53:14;22.00;;;13.40;;
56399;SDS011;42298;53.638;9.876;2022-12-11T13:55:41;21.90;;;12.87;;
56399;SDS011;42298;53.638;9.876;2022-12-11T13:58:39;20.13;;;12.00;;
56399;SDS011;42298;53.638;9.876;2022-12-11T14:03:35;20.43;;;12.53;;
56399;SDS011;42298;53.638;9.876;2022-12-11T14:06:16;18.50;;;11.33;;
56399;SDS011;42298;53.638;9.876;2022-12-11T14:08:42;19.53;;;11.73;;
56399;SDS011;42298;53.638;9.876;2022-12-11T14:11:12;18.10;;;10.47;;
56399;SDS011;42298;53.638;9.876;2022-12-11T14:13:46;19.07;;;11.33;;
56399;SDS011;42298;53.638;9.876;2022-12-11T14:16:13;19.37;;;12.00;;
56399;SDS011;42298;53.638;9.876;2022-12-11T14:18:46;20.50;;;13.10;;
56399;SDS011;42298;53.638;9.876;2022-12-11T14:21:18;19.83;;;11.93;;
56399;SDS011;42298;53.638;9.876;2022-12-11T14:23:52;20.97;;;12.23;;
56399;SDS011;42298;53.638;9.876;2022-12-11T14:26:21;20.07;;;12.97;;
56399;SDS011;42298;53.638;9.876;2022-12-11T14:28:48;20.10;;;11.57;;
56399;SDS011;42298;53.638;9.876;2022-12-11T14:31:23;19.87;;;12.13;;
56399;SDS011;42298;53.638;9.876;2022-12-11T14:33:55;18.00;;;11.50;;
56399;SDS011;42298;53.638;9.876;2022-12-11T14:36:26;18.43;;;10.80;;
56399;SDS011;42298;53.638;9.876;2022-12-11T14:39:06;19.30;;;11.10;;
56399;SDS011;42298;53.638;9.876;2022-12-11T14:41:47;22.10;;;12.10;;
56399;SDS011;42298;53.638;9.876;2022-12-11T14:44:18;19.63;;;11.63;;
56399;SDS011;42298;53.638;9.876;2022-12-11T14:46:48;20.60;;;11.63;;
56399;SDS011;42298;53.638;9.876;2022-12-11T14:51:41;21.00;;;11.73;;
56399;SDS011;42298;53.638;9.876;2022-12-11T14:54:06;20.80;;;11.83;;
56399;SDS011;42298;53.638;9.876;2022-12-11T14:56:41;19.97;;;10.80;;
56399;SDS011;42298;53.638;9.876;2022-12-11T14:59:13;21.47;;;12.57;;
56399;SDS011;42298;53.638;9.876;2022-12-11T15:01:46;24.03;;;11.83;;
56399;SDS011;42298;53.638;9.876;2022-12-11T15:04:29;19.90;;;11.63;;
56399;SDS011;42298;53.638;9.876;2022-12-11T15:06:57;21.67;;;12.13;;
56399;SDS011;42298;53.638;9.876;2022-12-11T15:11:58;18.50;;;10.57;;
56399;SDS011;42298;53.638;9.876;2022-12-11T15:14:53;18.80;;;11.20;;
56399;SDS011;42298;53.638;9.876;2022-12-11T15:17:21;16.57;;;9.97;;
56399;SDS011;42298;53.638;9.876;2022-12-11T15:19:50;19.57;;;10.30;;
56399;SDS011;42298;53.638;9.876;2022-12-11T15:22:20;16.77;;;10.43;;
56399;SDS011;42298;53.638;9.876;2022-12-11T15:24:49;18.13;;;11.23;;
56399;SDS011;42298;53.638;9.876;2022-12-11T15:29:58;17.87;;;10.37;;
56399;SDS011;42298;53.638;9.876;2022-12-11T15:32:23;19.57;;;10.00;;
56399;SDS011;42298;53.638;9.876;2022-12-11T15:37:19;19.37;;;11.10;;
56399;SDS011;42298;53.638;9.876;2022-12-11T15:39:49;18.37;;;10.57;;
56399;SDS011;42298;53.638;9.876;2022-12-11T15:42:26;20.13;;;10.33;;
56399;SDS011;42298;53.638;9.876;2022-12-11T15:44:54;18.33;;;10.97;;
56399;SDS011;42298;53.638;9.876;2022-12-11T15:47:21;22.17;;;12.20;;
56399;SDS011;42298;53.638;9.876;2022-12-11T15:49:48;20.50;;;12.67;;
56399;SDS011;42298;53.638;9.876;2022-12-11T15:52:13;19.33;;;11.20;;
56399;SDS011;42298;53.638;9.876;2022-12-11T15:54:38;20.93;;;12.10;;
56399;SDS011;42298;53.638;9.876;2022-12-11T15:57:05;18.90;;;10.80;;
56399;SDS011;42298;53.638;9.876;2022-12-11T15:59:34;20.07;;;11.20;;
56399;SDS011;42298;53.638;9.876;2022-12-11T16:02:00;19.93;;;11.60;;